Holloman Air Force Base
KHMN : rendu visible

Aérodrome :











RETROUVEZ-NOUS SUR...

 
LOGIN :

S'inscrire | Disclaimer

   EN    FR    IT 

 









Légende :    VFR   VFR Marginal   IFR   IFR Intensif   IFR Très Intensif
Visi : 
Plafond : 
>= 8 km
>= 3000ft
5 à 8 km
1000 à 3000 ft
1500m à 5 km
500 à 1000 ft
800 à 1500m
200 à 500 ft
< 800m
< 200 ft
Symboles :   Orages  Brouillard  Fortes neiges  Fortes précipitations  Vent > 20 kt






- Altitude de l'aérodrome : 4093 ft


KHMN - Holloman Air Force Base

DERNIER METAR :
  • 171758Z AUTO 15015KT 10SM CLR 12/07 A3014 RMK AO2 SLP180 T01230066 10123 20043 58006 $

METARs EXPIRÉS :
  • 171658Z AUTO 15015KT 10SM CLR 10/06 A3015 RMK AO2 SLP186 T01030059 $
  • 171558Z AUTO 14009KT 10SM CLR 07/04 A3015 RMK AO2 SLP190 T00680039 $

TAF TAF KHMN
Valide du 17 à 17h jusqu'au 18 à 23h UTC


171700Z 1717/1823 17008KT 9999 FEW060 QNH3014INS
BECMG 1719/1720 20010G15KT 9999 SKC QNH3005INS
BECMG 1800/1801 VRB06KT 9999 FEW200 QNH3007INS TX15/1721Z TN00/1814Z



MET'MAP, la Météo Aéronautique d'un coup d'oeil ! - Copyright ORBIFLY Décembre 2007 - Disclaimer

ORBIFLY MET'MAP TEAM :

Programmation & Développement : Alexandra Zaïnal
Sur une idée originale de : Baudouin d'Aumeries
Assistance à la programmation : Marc-Olivier Méhu
Soutien technique & logistique : Manuel Goepfert

Contact : metmap@orbifly.com




SOURCES & CREDITS :

   NOAA       Earth
Advisory